METAR Data
IDs: Format: Raw Decoded Include TAF

Data at: 1249 UTC 07 Jul 2020

KDTA 071235Z AUTO 16010KT 10SM CLR 20/M12 A2995 RMK AO1
KDTA 071215Z AUTO 16009KT 10SM CLR 20/M11 A2995 RMK AO1
KDTA 071155Z AUTO 16010KT 10SM CLR 19/M10 A2995 RMK AO1
KDTA 071135Z AUTO 16009KT 10SM CLR 19/M10 A2994 RMK AO1
KDTA 071115Z AUTO 16009KT 10SM CLR 18/M10 A2994 RMK AO1
KDTA 071055Z AUTO 16009KT 10SM CLR 18/M10 A2994 RMK AO1
KDTA 071035Z AUTO 16010KT 10SM CLR 19/M09 A2994 RMK AO1
KDTA 071015Z AUTO 16009KT 10SM CLR 20/M09 A2994 RMK AO1
KDTA 070955Z AUTO 15010KT 10SM CLR 20/M08 A2994 RMK AO1
KDTA 070935Z AUTO 16008KT 10SM CLR 20/M08 A2994 RMK AO1
KDTA 070915Z AUTO 15010KT 10SM CLR 20/M08 A2994 RMK AO1
KDTA 070855Z AUTO 10SM CLR 20/M07 A2994 RMK AO1
KDTA 070835Z AUTO 16008KT 10SM CLR 20/M07 A2995 RMK AO1
KDTA 070815Z AUTO 19008KT 10SM CLR 21/M07 A2995 RMK AO1
KDTA 070755Z AUTO 17010G15KT 10SM CLR 24/M07 A2995 RMK AO1
KDTA 070735Z AUTO 16010KT 10SM CLR 24/M07 A2994 RMK AO1
KDTA 070715Z AUTO 16011KT 10SM CLR 25/M07 A2994 RMK AO1
KDTA 070655Z AUTO 16013KT 10SM CLR 25/M07 A2994 RMK AO1
KDTA 070635Z AUTO 15013G16KT 10SM CLR 25/M07 A2994 RMK AO1
KDTA 070615Z AUTO 16013G17KT 10SM CLR 26/M07 A2994 RMK AO1
KDTA 070555Z AUTO 16013G18KT 10SM CLR 26/M07 A2994 RMK AO1
KDTA 070535Z AUTO 16012G18KT 10SM CLR 26/M07 A2993 RMK AO1
KDTA 070515Z AUTO 16013KT 10SM CLR 26/M07 A2993 RMK AO1
KDTA 070455Z AUTO 17009KT 10SM CLR 26/M07 A2993 RMK AO1
KDTA 070435Z AUTO 17010KT 10SM CLR 26/M07 A2993 RMK AO1
KDTA 070415Z AUTO 16008KT 10SM CLR 26/M07 A2992 RMK AO1
KDTA 070355Z AUTO 18009KT 10SM CLR 25/M07 A2991 RMK AO1
KDTA 070335Z AUTO 19009KT 10SM CLR 27/M06 A2991 RMK AO1
KDTA 070315Z AUTO 19009KT 10SM CLR 28/M06 A2990 RMK AO1
KDTA 070255Z AUTO 19010KT 10SM CLR 30/M06 A2990 RMK AO1
KDTA 070235Z AUTO 20010KT 10SM CLR 31/M06 A2990 RMK AO1
KDTA 070215Z AUTO 20012KT 10SM CLR 32/M05 A2989 RMK AO1
KDTA 070155Z AUTO 20014G18KT 10SM CLR 34/M05 A2989 RMK AO1
KDTA 070135Z AUTO 21011G18KT 10SM CLR 35/M04 A2989 RMK AO1
KDTA 070115Z AUTO 22012KT 10SM CLR 36/M05 A2989 RMK AO1
KDTA 070055Z AUTO 22017G21KT 10SM CLR 36/M05 A2989 RMK AO1
KDTA 070035Z AUTO 23014G18KT 10SM CLR 37/M05 A2989 RMK AO1
KDTA 070015Z AUTO 21015G18KT 10SM CLR 37/M06 A2989 RMK AO1
KDTA 062355Z AUTO 22013G18KT 10SM CLR 37/M06 A2990 RMK AO1
KDTA 062335Z AUTO 19010G14KT 10SM CLR 37/M05 A2991 RMK AO1
KDTA 062315Z AUTO 21005KT 10SM CLR 37/M05 A2992 RMK AO1
KDTA 062255Z AUTO 22013G23KT 180V240 10SM CLR 37/M04 A2993 RMK AO1
KDTA 062235Z AUTO 25011G20KT 10SM CLR 37/M05 A2993 RMK AO1
KDTA 062215Z AUTO 17005KT 10SM CLR 36/M05 A2994 RMK AO1
KDTA 062155Z AUTO 23009G19KT 10SM CLR 36/M05 A2995 RMK AO1
KDTA 062135Z AUTO 27006KT 10SM CLR 36/M05 A2996 RMK AO1
KDTA 062115Z AUTO 32008G15KT 10SM CLR 36/M05 A2997 RMK AO1
KDTA 062055Z AUTO 28010G16KT 240V300 10SM CLR 36/M05 A2998 RMK AO1
KDTA 062035Z AUTO 28008KT 10SM CLR 35/M05 A2999 RMK AO1
KDTA 062015Z AUTO 26008G15KT 10SM CLR 36/M05 A3000 RMK AO1
KDTA 061955Z AUTO 21005KT 10SM CLR 35/M05 A3001 RMK AO1
KDTA 061935Z AUTO 00000KT 10SM CLR 34/M05 A3002 RMK AO1
KDTA 061915Z AUTO 21006KT 10SM CLR 34/M03 A3003 RMK AO1
KDTA 061855Z AUTO 21006G15KT 10SM CLR 33/M03 A3004 RMK AO1
KDTA 061835Z AUTO 20009KT 10SM CLR 33/M04 A3004 RMK AO1
KDTA 061815Z AUTO 21005KT 10SM CLR 32/M03 A3005 RMK AO1
KDTA 061755Z AUTO 26005KT 10SM CLR 31/M03 A3005 RMK AO1
KDTA 061735Z AUTO 23005KT 10SM CLR 31/M02 A3005 RMK AO1
KDTA 061715Z AUTO 18004KT 10SM CLR 31/M03 A3006 RMK AO1
KDTA 061655Z AUTO 20005KT 10SM CLR 30/M03 A3006 RMK AO1
KDTA 061635Z AUTO 22005KT 10SM CLR 29/M04 A3006 RMK AO1
KDTA 061615Z AUTO 24003KT 10SM CLR 28/M03 A3006 RMK AO1
KDTA 061555Z AUTO 21004KT 10SM CLR 27/M03 A3006 RMK AO1
KDTA 061535Z AUTO 24004KT 10SM CLR 26/M03 A3006 RMK AO1
KDTA 061515Z AUTO 23005KT 10SM CLR 26/M04 A3006 RMK AO1
KDTA 061455Z AUTO 22005KT 10SM CLR 25/M04 A3006 RMK AO1
KDTA 061435Z AUTO 21006KT 10SM CLR 25/M05 A3006 RMK AO1
KDTA 061415Z AUTO 23003KT 10SM CLR 24/M05 A3005 RMK AO1
KDTA 061355Z AUTO 19005KT 10SM CLR 22/M06 A3005 RMK AO1
KDTA 061335Z AUTO 21004KT 10SM CLR 20/M05 A3005 RMK AO1
KDTA 061315Z AUTO 20006KT 10SM CLR 18/M04 A3005 RMK AO1
KDTA 061255Z AUTO 20008KT 10SM CLR 16/M03 A3005 RMK AO1
KDTA 061235Z AUTO 19007KT 10SM CLR 15/M04 A3004 RMK AO1
KDTA 061215Z AUTO 20007KT 10SM CLR 15/M05 A3004 RMK AO1
KDTA 061155Z AUTO 19008KT 10SM CLR 16/M05 A3003 RMK AO1
KDTA 061135Z AUTO 17009KT 10SM CLR 20/M07 A3002 RMK AO1
KDTA 061115Z AUTO 17008KT 10SM CLR 20/M07 A3002 RMK AO1
KDTA 061055Z AUTO 16010KT 10SM CLR 21/M06 A3001 RMK AO1
KDTA 061035Z AUTO 16009KT 10SM CLR 21/M06 A3000 RMK AO1
KDTA 061015Z AUTO 17011KT 10SM CLR 21/M06 A2999 RMK AO1
KDTA 060955Z AUTO 17009KT 10SM CLR 21/M06 A2999 RMK AO1
KDTA 060935Z AUTO 19009KT 10SM CLR 22/M06 A2999 RMK AO1
KDTA 060915Z AUTO 18011KT 10SM CLR 22/M05 A2999 RMK AO1
KDTA 060855Z AUTO 18011KT 10SM CLR 22/M05 A2999 RMK AO1
KDTA 060835Z AUTO 18011KT 10SM CLR 23/M05 A2998 RMK AO1
KDTA 060815Z AUTO 17013KT 10SM CLR 23/M05 A2998 RMK AO1
KDTA 060755Z AUTO 17012KT 10SM CLR 23/M06 A2998 RMK AO1
KDTA 060735Z AUTO 17012KT 10SM CLR 25/M06 A2998 RMK AO1
KDTA 060715Z AUTO 17012KT 10SM CLR 25/M06 A2997 RMK AO1
KDTA 060655Z AUTO 17011KT 10SM CLR 23/M07 A2997 RMK AO1
KDTA 060635Z AUTO 15011KT 10SM CLR 22/M07 A2997 RMK AO1
KDTA 060615Z AUTO 16009KT 10SM CLR 19/M07 A2997 RMK AO1
KDTA 060555Z AUTO 17010KT 10SM CLR 18/M06 A2997 RMK AO1
KDTA 060535Z AUTO 19007KT 10SM CLR 20/M07 A2997 RMK AO1
KDTA 060515Z AUTO 16005KT 10SM CLR 24/M07 A2996 RMK AO1
KDTA 060455Z AUTO 10004KT 10SM CLR 24/M07 A2997 RMK AO1
KDTA 060435Z AUTO 10006KT 10SM CLR 25/M06 A2997 RMK AO1
KDTA 060415Z AUTO 09005KT 10SM CLR 25/M05 A2996 RMK AO1
KDTA 060355Z AUTO 09005KT 10SM CLR 25/M06 A2997 RMK AO1
KDTA 060335Z AUTO 09006KT 7SM CLR 26/M03 A2996 RMK AO1
KDTA 060315Z AUTO 06005KT 10SM CLR 28/M02 A2996 RMK AO1
KDTA 060255Z AUTO 05005KT 7SM CLR 30/M04 A2997 RMK AO1
KDTA 060235Z AUTO 05005KT 10SM CLR 31/M04 A2997 RMK AO1
KDTA 060215Z AUTO 06004KT 10SM CLR 32/M05 A2997 RMK AO1
KDTA 060155Z AUTO 06003KT 10SM CLR 33/M07 A2998 RMK AO1
KDTA 060135Z AUTO 00000KT 10SM CLR 33/M07 A2998 RMK AO1
KDTA 060115Z AUTO 34004KT 10SM CLR 33/M07 A2998 RMK AO1
KDTA 060055Z AUTO 00000KT 10SM CLR 34/M07 A2998 RMK AO1